createdAt,value
2023-01-19T00:00:20.514Z,99298.75
2023-01-19T00:02:46.936Z,99293.84
2023-01-19T00:05:14.361Z,99298.19
2023-01-19T00:07:40.852Z,99296.28
2023-01-19T00:10:08.939Z,99297.94
2023-01-19T00:12:35.428Z,99297.63
2023-01-19T00:15:01.902Z,99294.38
2023-01-19T00:17:29.603Z,99291.66
2023-01-19T00:19:55.981Z,99293.28
2023-01-19T00:22:22.337Z,99288.34
2023-01-19T00:24:48.749Z,99287.28
2023-01-19T00:27:15.099Z,99287.00
2023-01-19T00:29:41.468Z,99285.09
2023-01-19T00:32:07.944Z,99291.09
2023-01-19T00:34:35.610Z,99296.56
2023-01-19T00:37:02.043Z,99300.41
2023-01-19T00:39:28.490Z,99304.75
2023-01-19T00:41:54.891Z,99309.69
2023-01-19T00:44:21.239Z,99304.75
2023-01-19T00:46:47.606Z,99309.69
2023-01-19T00:49:13.957Z,99309.38
2023-01-19T00:51:41.708Z,99308.59
2023-01-19T00:54:08.103Z,99310.19
2023-01-19T00:56:34.451Z,99314.84
2023-01-19T00:59:00.824Z,99311.34
2023-01-19T01:01:45.429Z,99320.59
2023-01-19T01:04:12.801Z,99318.94
2023-01-19T01:06:39.160Z,99309.31
2023-01-19T01:09:06.917Z,99313.47
2023-01-19T01:11:33.256Z,99313.38
2023-01-19T01:13:59.620Z,99308.16
2023-01-19T01:16:26.154Z,99315.06
2023-01-19T01:18:52.513Z,99309.94
2023-01-19T01:21:18.890Z,99309.16
2023-01-19T01:23:45.905Z,99309.69
2023-01-19T01:26:13.597Z,99318.97
2023-01-19T01:28:40.071Z,99315.06
2023-01-19T01:31:06.424Z,99312.41
2023-01-19T01:33:40.939Z,99314.59
2023-01-19T01:36:09.020Z,99318.69
2023-01-19T01:38:35.394Z,99314.84
2023-01-19T01:41:01.772Z,99318.72
2023-01-19T01:43:42.660Z,99313.50
2023-01-19T01:46:09.210Z,99305.56
2023-01-19T01:48:38.015Z,99309.94
2023-01-19T01:51:10.120Z,99301.38
2023-01-19T01:53:37.552Z,99301.50
2023-01-19T01:56:09.531Z,99291.94
2023-01-19T01:58:40.315Z,99288.63
2023-01-19T02:01:07.635Z,99289.44
2023-01-19T02:03:34.071Z,99294.34
2023-01-19T02:06:04.196Z,99297.94
2023-01-19T02:08:35.164Z,99286.19
2023-01-19T02:11:02.340Z,99292.47
2023-01-19T02:13:30.578Z,99291.38
2023-01-19T02:16:01.913Z,99295.47
2023-01-19T02:18:30.895Z,99297.38
2023-01-19T02:21:06.634Z,99298.22
2023-01-19T02:23:39.423Z,99305.81
2023-01-19T02:26:08.704Z,99307.75
2023-01-19T02:28:36.446Z,99300.63
2023-01-19T02:31:03.147Z,99299.28
2023-01-19T02:33:29.597Z,99289.41
2023-01-19T02:35:56.698Z,99296.28
2023-01-19T02:38:25.845Z,99287.81
2023-01-19T02:40:55.492Z,99301.50
2023-01-19T02:43:23.709Z,99299.28
2023-01-19T02:45:50.165Z,99299.28
2023-01-19T02:48:18.333Z,99304.38
2023-01-19T02:50:46.636Z,99298.47
2023-01-19T02:53:27.458Z,99294.69
2023-01-19T02:56:03.271Z,99298.47
2023-01-19T02:58:34.143Z,99302.28
2023-01-19T03:01:10.398Z,99304.50
2023-01-19T03:03:47.222Z,99306.94
2023-01-19T03:06:24.089Z,99301.44
2023-01-19T03:08:55.865Z,99301.44
2023-01-19T03:11:27.319Z,99305.78
2023-01-19T03:13:57.376Z,99296.53
2023-01-19T03:16:29.734Z,99299.53
2023-01-19T03:19:02.852Z,99298.16
2023-01-19T03:21:30.736Z,99294.38
2023-01-19T03:24:01.939Z,99297.09
2023-01-19T03:26:33.836Z,99294.91
2023-01-19T03:29:02.399Z,99299.28
2023-01-19T03:31:32.043Z,99295.38
2023-01-19T03:34:04.068Z,99298.13
2023-01-19T03:36:34.708Z,99297.56
2023-01-19T03:39:03.383Z,99300.81
2023-01-19T03:41:33.240Z,99298.16
2023-01-19T03:44:00.931Z,99295.97
2023-01-19T03:46:28.278Z,99298.91
2023-01-19T03:48:54.946Z,99293.47
2023-01-19T03:51:22.072Z,99297.84
2023-01-19T03:53:48.514Z,99293.44
2023-01-19T03:56:18.435Z,99293.91
2023-01-19T03:58:46.269Z,99298.44
2023-01-19T04:01:13.795Z,99291.72
2023-01-19T04:03:40.237Z,99288.53
2023-01-19T04:06:07.056Z,99294.44
2023-01-19T04:08:33.509Z,99294.63
2023-01-19T04:10:59.915Z,99289.03
2023-01-19T04:13:26.427Z,99280.66
2023-01-19T04:15:54.369Z,99293.59
2023-01-19T04:18:20.728Z,99283.22
2023-01-19T04:20:47.064Z,99283.59
2023-01-19T04:23:13.445Z,99277.03
2023-01-19T04:25:39.797Z,99284.31
2023-01-19T04:28:06.218Z,99292.25
2023-01-19T04:30:32.594Z,99289.06
2023-01-19T04:33:00.612Z,99289.63
2023-01-19T04:35:27.145Z,99279.28
2023-01-19T04:37:53.745Z,99275.19
2023-01-19T04:40:20.512Z,99263.56
2023-01-19T04:42:46.945Z,99261.44
2023-01-19T04:45:13.911Z,99258.31
2023-01-19T04:47:40.528Z,99253.84
2023-01-19T04:50:09.608Z,99247.22
2023-01-19T04:52:36.389Z,99256.03
2023-01-19T04:55:03.321Z,99248.38
2023-01-19T04:57:30.022Z,99241.97
2023-01-19T04:59:56.724Z,99266.16
2023-01-19T05:02:23.388Z,99252.88
2023-01-19T05:04:50.085Z,99257.84
2023-01-19T05:07:17.859Z,99254.56
2023-01-19T05:09:44.283Z,99262.59
2023-01-19T05:12:10.620Z,99261.56
2023-01-19T05:14:37.323Z,99262.00
2023-01-19T05:17:03.694Z,99263.50
2023-01-19T05:19:30.067Z,99259.63
2023-01-19T05:21:56.447Z,99270.78
2023-01-19T05:24:24.139Z,99270.53
2023-01-19T05:26:50.496Z,99281.47
2023-01-19T05:29:17.119Z,99272.25
2023-01-19T05:31:43.614Z,99275.94
2023-01-19T05:34:11.101Z,99270.13
2023-01-19T05:36:37.513Z,99281.78
2023-01-19T05:39:03.909Z,99281.47
2023-01-19T05:41:31.584Z,99289.84
2023-01-19T05:43:58.189Z,99287.03
2023-01-19T05:46:24.604Z,99291.09
2023-01-19T05:48:51.111Z,99299.28
2023-01-19T05:51:17.461Z,99286.63
2023-01-19T05:53:43.889Z,99286.22
2023-01-19T05:56:11.236Z,99296.81
2023-01-19T05:58:39.069Z,99294.34
2023-01-19T06:01:07.118Z,99300.00
2023-01-19T06:03:34.948Z,99298.19
2023-01-19T06:06:02.529Z,99296.69
2023-01-19T06:08:29.328Z,99299.56
2023-01-19T06:10:57.282Z,99301.31
2023-01-19T06:13:23.673Z,99308.22
2023-01-19T06:15:58.114Z,99307.81
2023-01-19T06:18:25.096Z,99315.50
2023-01-19T06:20:54.190Z,99303.13
2023-01-19T06:23:20.617Z,99305.28
2023-01-19T06:25:48.952Z,99306.72
2023-01-19T06:28:15.317Z,99305.03
2023-01-19T06:30:47.687Z,99304.63
2023-01-19T06:33:15.581Z,99306.06
2023-01-19T06:35:42.918Z,99320.75
2023-01-19T06:38:09.371Z,99313.44
2023-01-19T06:40:35.740Z,99317.22
2023-01-19T06:43:02.559Z,99313.03
2023-01-19T06:45:29.171Z,99317.88
2023-01-19T06:47:55.778Z,99325.97
2023-01-19T06:50:23.463Z,99317.59
2023-01-19T06:52:49.936Z,99330.63
2023-01-19T06:55:16.663Z,99335.28
2023-01-19T06:57:43.104Z,99320.16
2023-01-19T07:00:11.024Z,99333.25
2023-01-19T07:02:37.928Z,99338.41
2023-01-19T07:05:04.958Z,99335.81
2023-01-19T07:07:32.832Z,99333.94
2023-01-19T07:09:59.209Z,99336.09
2023-01-19T07:12:25.589Z,99340.13
2023-01-19T07:14:54.689Z,99348.28
2023-01-19T07:17:21.070Z,99345.44
2023-01-19T07:19:47.446Z,99349.91
2023-01-19T07:22:14.053Z,99344.19
2023-01-19T07:24:41.790Z,99357.00
2023-01-19T07:27:08.236Z,99364.75
2023-01-19T07:29:34.607Z,99362.13
2023-01-19T07:32:01.000Z,99362.16
2023-01-19T07:34:27.455Z,99369.00
2023-01-19T07:36:55.468Z,99373.78
2023-01-19T07:39:24.785Z,99374.00
2023-01-19T07:41:52.484Z,99380.66
2023-01-19T07:44:18.853Z,99374.97
2023-01-19T07:46:45.226Z,99381.06
2023-01-19T07:49:11.624Z,99373.59
2023-01-19T07:51:38.008Z,99381.00
2023-01-19T07:54:04.565Z,99377.97
2023-01-19T07:56:32.764Z,99386.88
2023-01-19T07:59:01.343Z,99384.50
2023-01-19T08:01:27.875Z,99384.97
2023-01-19T08:03:54.320Z,99384.22
2023-01-19T08:06:22.750Z,99397.34
2023-01-19T08:08:49.834Z,99386.28
2023-01-19T08:11:16.640Z,99386.44
2023-01-19T08:13:43.122Z,99389.09
2023-01-19T08:16:10.947Z,99399.28
2023-01-19T08:18:37.417Z,99396.91
2023-01-19T08:21:04.142Z,99392.53
2023-01-19T08:23:30.550Z,99397.38
2023-01-19T08:25:57.183Z,99393.75
2023-01-19T08:28:23.754Z,99392.88
2023-01-19T08:30:50.287Z,99388.97
2023-01-19T08:33:18.041Z,99397.09
2023-01-19T08:35:48.433Z,99394.25
2023-01-19T08:38:15.344Z,99398.75
2023-01-19T08:40:42.160Z,99392.25
2023-01-19T08:43:10.815Z,99397.72
2023-01-19T08:45:39.557Z,99398.19
2023-01-19T08:48:06.200Z,99398.75
2023-01-19T08:50:34.432Z,99402.50
2023-01-19T08:53:03.784Z,99407.50
2023-01-19T08:55:32.810Z,99416.13
2023-01-19T08:57:59.752Z,99422.38
2023-01-19T09:00:26.944Z,99412.88
2023-01-19T09:02:53.892Z,99420.72
2023-01-19T09:05:20.386Z,99427.44
2023-01-19T09:07:48.177Z,99420.44
2023-01-19T09:10:15.526Z,99423.88
2023-01-19T09:12:42.203Z,99435.81
2023-01-19T09:15:09.588Z,99440.31
2023-01-19T09:17:36.463Z,99446.03
2023-01-19T09:20:03.072Z,99448.34
2023-01-19T09:22:29.477Z,99441.19
2023-01-19T09:24:57.214Z,99443.91
2023-01-19T09:27:23.758Z,99449.88
2023-01-19T09:29:50.221Z,99455.66
2023-01-19T09:32:16.626Z,99455.50
2023-01-19T09:34:42.988Z,99461.28
2023-01-19T09:37:09.434Z,99459.59
2023-01-19T09:39:36.251Z,99458.13
2023-01-19T09:42:13.719Z,99459.75
2023-01-19T09:44:43.424Z,99465.69
2023-01-19T09:47:14.234Z,99465.78
2023-01-19T09:49:43.999Z,99469.97
2023-01-19T09:52:13.151Z,99476.25
2023-01-19T09:54:46.965Z,99468.81
2023-01-19T09:57:14.636Z,99475.53
2023-01-19T09:59:41.918Z,99478.94
2023-01-19T10:02:34.350Z,99474.06
2023-01-19T10:05:02.692Z,99484.59
2023-01-19T10:07:54.143Z,99492.94
2023-01-19T10:10:22.794Z,99490.09
2023-01-19T10:13:02.893Z,99495.03
2023-01-19T10:15:39.315Z,99491.38
2023-01-19T10:18:13.505Z,99486.69
2023-01-19T10:20:43.678Z,99487.25
2023-01-19T10:23:24.897Z,99486.97
2023-01-19T10:25:52.063Z,99495.56
2023-01-19T10:28:25.289Z,99502.94
2023-01-19T10:30:54.088Z,99496.78
2023-01-19T10:33:20.604Z,99496.59
2023-01-19T10:35:47.018Z,99492.69
2023-01-19T10:38:16.554Z,99494.88
2023-01-19T10:40:48.996Z,99484.63
2023-01-19T10:43:35.819Z,99489.91
2023-01-19T10:46:05.871Z,99500.00
2023-01-19T10:48:38.737Z,99490.75
2023-01-19T10:51:06.258Z,99495.75
2023-01-19T10:53:32.880Z,99491.88
2023-01-19T10:56:15.530Z,99493.44
2023-01-19T10:58:46.093Z,99498.84
2023-01-19T11:01:15.481Z,99507.34
2023-01-19T11:03:42.080Z,99506.00
2023-01-19T11:06:23.571Z,99509.81
2023-01-19T11:08:51.532Z,99502.25
2023-01-19T11:11:19.440Z,99506.84
2023-01-19T11:14:04.499Z,99514.34
2023-01-19T11:16:32.025Z,99507.44
2023-01-19T11:18:59.116Z,99512.97
2023-01-19T11:21:27.735Z,99507.44
2023-01-19T11:23:57.485Z,99509.22
2023-01-19T11:26:28.757Z,99508.56
2023-01-19T11:28:58.448Z,99514.47
2023-01-19T11:31:33.265Z,99503.41
2023-01-19T11:34:01.637Z,99506.50
2023-01-19T11:36:32.549Z,99509.41
2023-01-19T11:39:02.266Z,99504.53
2023-01-19T11:41:32.523Z,99502.81
2023-01-19T11:44:10.184Z,99509.59
2023-01-19T11:46:40.926Z,99508.44
2023-01-19T11:49:19.830Z,99511.94
2023-01-19T11:51:51.844Z,99517.13
2023-01-19T11:54:22.836Z,99511.13
2023-01-19T11:56:52.215Z,99515.22
2023-01-19T11:59:22.272Z,99518.69
2023-01-19T12:01:53.295Z,99513.47
2023-01-19T12:04:25.692Z,99515.63
2023-01-19T12:06:54.967Z,99521.50
2023-01-19T12:09:26.918Z,99524.44
2023-01-19T12:11:57.081Z,99523.22
2023-01-19T12:14:31.739Z,99535.47
2023-01-19T12:17:02.913Z,99536.75
2023-01-19T12:19:40.978Z,99529.06
2023-01-19T12:22:13.239Z,99532.56
2023-01-19T12:24:45.401Z,99532.31
2023-01-19T12:27:22.319Z,99534.50
2023-01-19T12:29:50.529Z,99538.56
2023-01-19T12:32:31.769Z,99532.84
2023-01-19T12:34:58.235Z,99545.63
2023-01-19T12:37:34.154Z,99542.16
2023-01-19T12:40:02.904Z,99542.16
2023-01-19T12:42:30.234Z,99551.25
2023-01-19T12:45:09.235Z,99545.31
2023-01-19T12:47:36.780Z,99561.72
2023-01-19T12:50:12.999Z,99560.50
2023-01-19T12:52:41.439Z,99558.63
2023-01-19T12:55:20.903Z,99563.28
2023-01-19T12:57:52.785Z,99561.56
2023-01-19T13:00:35.361Z,99566.09
2023-01-19T13:03:04.308Z,99574.00
2023-01-19T13:05:57.925Z,99575.34
2023-01-19T13:08:26.833Z,99581.00
2023-01-19T13:11:09.415Z,99576.88
2023-01-19T13:13:37.574Z,99583.88
2023-01-19T13:16:37.418Z,99582.19
2023-01-19T13:19:16.757Z,99579.97
2023-01-19T13:21:45.154Z,99584.72
2023-01-19T13:24:12.974Z,99575.75
2023-01-19T13:26:52.034Z,99588.66
2023-01-19T13:29:25.284Z,99587.63
2023-01-19T13:31:52.231Z,99587.25
2023-01-19T13:34:22.882Z,99580.94
2023-01-19T13:36:51.829Z,99591.44
2023-01-19T13:39:26.322Z,99589.13
2023-01-19T13:41:55.689Z,99593.50
2023-01-19T13:44:27.281Z,99596.38
2023-01-19T13:46:55.196Z,99589.69
2023-01-19T13:49:29.168Z,99599.50
2023-01-19T13:52:13.077Z,99597.78
2023-01-19T13:54:47.937Z,99601.47
2023-01-19T13:57:26.007Z,99605.22
2023-01-19T14:00:14.782Z,99614.53
2023-01-19T14:02:50.207Z,99616.41
2023-01-19T14:05:24.533Z,99623.59
2023-01-19T14:08:05.690Z,99622.47
2023-01-19T14:10:33.222Z,99625.47
2023-01-19T14:13:00.701Z,99633.75
2023-01-19T14:15:28.017Z,99647.00
2023-01-19T14:18:24.527Z,99640.44
2023-01-19T14:21:10.984Z,99646.66
2023-01-19T14:23:43.866Z,99642.16
2023-01-19T14:26:41.449Z,99648.38
2023-01-19T14:29:16.514Z,99652.81
2023-01-19T14:31:44.123Z,99653.69
2023-01-19T14:34:32.423Z,99650.63
2023-01-19T14:37:01.287Z,99656.03
2023-01-19T14:39:30.210Z,99659.53
2023-01-19T14:42:00.608Z,99663.66
2023-01-19T14:44:30.632Z,99661.59
2023-01-19T14:46:57.953Z,99669.34
2023-01-19T14:49:31.130Z,99673.19
2023-01-19T14:51:57.668Z,99675.34
2023-01-19T14:54:32.541Z,99680.50
2023-01-19T14:56:58.924Z,99677.75
2023-01-19T14:59:25.385Z,99682.31
2023-01-19T15:01:51.950Z,99683.22
2023-01-19T15:04:18.484Z,99688.59
2023-01-19T15:06:44.960Z,99694.75
2023-01-19T15:09:15.136Z,99696.06
2023-01-19T15:11:43.987Z,99697.97
2023-01-19T15:14:13.197Z,99698.31
2023-01-19T15:16:40.247Z,99701.84
2023-01-19T15:19:11.157Z,99706.41
2023-01-19T15:21:37.799Z,99707.50
2023-01-19T15:24:04.776Z,99715.69
2023-01-19T15:26:31.192Z,99719.53
2023-01-19T15:28:58.983Z,99725.06
2023-01-19T15:31:26.207Z,99720.22
2023-01-19T15:33:52.752Z,99729.56
2023-01-19T15:36:21.396Z,99740.34
2023-01-19T15:38:48.363Z,99743.75
2023-01-19T15:41:18.812Z,99748.06
2023-01-19T15:43:45.205Z,99755.47
2023-01-19T15:46:14.804Z,99750.94
2023-01-19T15:48:41.243Z,99756.75
2023-01-19T15:51:12.353Z,99754.31
2023-01-19T15:53:40.558Z,99766.50
2023-01-19T15:56:14.740Z,99779.19
2023-01-19T15:58:41.435Z,99766.69
2023-01-19T16:01:14.038Z,99776.78
2023-01-19T16:03:40.811Z,99775.25
2023-01-19T16:06:07.430Z,99782.56
2023-01-19T16:08:34.119Z,99780.88
2023-01-19T16:11:04.289Z,99786.09
2023-01-19T16:13:30.738Z,99790.03
2023-01-19T16:16:03.657Z,99792.53
2023-01-19T16:18:31.579Z,99783.22
2023-01-19T16:20:57.986Z,99797.19
2023-01-19T16:23:24.502Z,99792.81
2023-01-19T16:25:58.053Z,99793.63
2023-01-19T16:28:25.273Z,99796.38
2023-01-19T16:30:52.087Z,99798.28
2023-01-19T16:33:18.831Z,99793.00
2023-01-19T16:35:46.581Z,99799.91
2023-01-19T16:38:12.994Z,99797.13
2023-01-19T16:40:39.428Z,99807.59
2023-01-19T16:43:05.887Z,99814.72
2023-01-19T16:45:32.328Z,99815.03
2023-01-19T16:47:58.788Z,99814.19
2023-01-19T16:50:25.196Z,99821.56
2023-01-19T16:52:56.749Z,99825.69
2023-01-19T16:55:23.285Z,99828.19
2023-01-19T16:57:49.686Z,99831.66
2023-01-19T17:00:17.150Z,99830.91
2023-01-19T17:02:43.622Z,99828.34
2023-01-19T17:05:10.306Z,99832.75
2023-01-19T17:07:36.847Z,99842.91
2023-01-19T17:10:05.936Z,99849.25
2023-01-19T17:12:32.484Z,99841.31
2023-01-19T17:14:58.879Z,99849.81
2023-01-19T17:17:25.283Z,99848.63
2023-01-19T17:19:51.666Z,99854.16
2023-01-19T17:22:18.066Z,99861.03
2023-01-19T17:24:44.505Z,99856.03
2023-01-19T17:27:12.286Z,99865.97
2023-01-19T17:29:38.671Z,99859.63
2023-01-19T17:32:05.333Z,99862.06
2023-01-19T17:34:31.818Z,99861.56
2023-01-19T17:36:58.234Z,99864.34
2023-01-19T17:39:24.634Z,99863.72
2023-01-19T17:41:51.075Z,99868.53
2023-01-19T17:44:18.867Z,99870.31
2023-01-19T17:46:45.302Z,99883.13
2023-01-19T17:49:11.736Z,99883.09
2023-01-19T17:51:38.157Z,99880.06
2023-01-19T17:54:05.207Z,99883.59
2023-01-19T17:56:32.513Z,99883.19
2023-01-19T17:58:59.448Z,99885.88
2023-01-19T18:01:29.036Z,99888.88
2023-01-19T18:03:56.481Z,99889.78
2023-01-19T18:06:23.211Z,99901.78
2023-01-19T18:08:50.074Z,99899.63
2023-01-19T18:11:18.819Z,99903.09
2023-01-19T18:13:46.730Z,99908.16
2023-01-19T18:16:15.551Z,99908.28
2023-01-19T18:18:43.535Z,99909.56
2023-01-19T18:21:14.774Z,99916.28
2023-01-19T18:23:41.534Z,99911.53
2023-01-19T18:26:11.200Z,99913.84
2023-01-19T18:28:37.934Z,99920.69
2023-01-19T18:31:06.699Z,99918.88
2023-01-19T18:33:33.278Z,99917.56
2023-01-19T18:36:01.227Z,99930.38
2023-01-19T18:38:27.931Z,99928.75
2023-01-19T18:41:12.500Z,99931.19
2023-01-19T18:43:39.436Z,99937.97
2023-01-19T18:46:06.815Z,99935.78
2023-01-19T18:48:33.323Z,99939.06
2023-01-19T18:51:05.551Z,99943.50
2023-01-19T18:53:32.314Z,99938.25
2023-01-19T18:58:56.538Z,99932.31
2023-01-19T19:01:24.816Z,99944.50
2023-01-19T19:03:51.503Z,99946.53
2023-01-19T19:06:19.611Z,99946.00
2023-01-19T19:08:47.002Z,99942.63
2023-01-19T19:11:14.237Z,99944.94
2023-01-19T19:13:41.045Z,99943.66
2023-01-19T19:16:09.906Z,99953.38
2023-01-19T19:18:37.474Z,99952.44
2023-01-19T19:21:04.913Z,99954.94
2023-01-19T19:23:32.747Z,99953.69
2023-01-19T19:26:03.196Z,99960.28
2023-01-19T19:28:29.585Z,99962.13
2023-01-19T19:31:02.909Z,99965.66
2023-01-19T19:33:29.467Z,99970.09
2023-01-19T19:35:56.636Z,99979.28
2023-01-19T19:38:23.077Z,99977.03
2023-01-19T19:40:52.900Z,99977.06
2023-01-19T19:43:19.330Z,99977.63
2023-01-19T19:45:56.346Z,99981.34
2023-01-19T19:48:26.002Z,99976.13
2023-01-19T19:50:52.488Z,99982.53
2023-01-19T19:53:18.929Z,99987.06
2023-01-19T19:55:56.403Z,99980.94
2023-01-19T19:58:23.030Z,99984.97
2023-01-19T20:00:49.527Z,99977.88
2023-01-19T20:03:15.990Z,99980.06
2023-01-19T20:05:42.420Z,99993.47
2023-01-19T20:08:08.854Z,99990.34
2023-01-19T20:10:35.385Z,99990.09
2023-01-19T20:13:03.801Z,99989.94
2023-01-19T20:15:30.280Z,100003.03
2023-01-19T20:17:56.850Z,99996.94
2023-01-19T20:20:23.684Z,100003.25
2023-01-19T20:22:50.097Z,100002.53
2023-01-19T20:25:16.653Z,100009.38
2023-01-19T20:27:44.939Z,100014.50
2023-01-19T20:30:14.070Z,100014.75
2023-01-19T20:32:40.748Z,100027.81
2023-01-19T20:35:07.398Z,100022.78
2023-01-19T20:37:33.905Z,100027.38
2023-01-19T20:40:00.363Z,100033.06
2023-01-19T20:42:26.785Z,100032.72
2023-01-19T20:44:56.339Z,100039.28
2023-01-19T20:47:24.093Z,100043.22
2023-01-19T20:49:50.532Z,100044.19
2023-01-19T20:52:16.973Z,100051.47
2023-01-19T20:54:43.392Z,100043.44
2023-01-19T20:57:10.039Z,100052.25
2023-01-19T20:59:36.478Z,100048.19
2023-01-19T21:02:02.992Z,100054.72
2023-01-19T21:04:30.870Z,100061.59
2023-01-19T21:06:57.288Z,100056.28
2023-01-19T21:09:23.720Z,100062.47
2023-01-19T21:11:50.222Z,100065.41
2023-01-19T21:14:16.661Z,100063.81
2023-01-19T21:16:43.135Z,100073.34
2023-01-19T21:19:09.580Z,100073.97
2023-01-19T21:21:37.344Z,100074.19
2023-01-19T21:24:04.292Z,100073.16
2023-01-19T21:26:31.551Z,100079.59
2023-01-19T21:28:58.533Z,100087.00
2023-01-19T21:31:27.531Z,100084.53
2023-01-19T21:33:54.645Z,100094.59
2023-01-19T21:36:21.601Z,100097.28
2023-01-19T21:38:49.493Z,100101.16
2023-01-19T21:41:15.916Z,100099.09
2023-01-19T21:43:42.415Z,100104.94
2023-01-19T21:46:10.567Z,100103.25
2023-01-19T21:48:37.061Z,100098.81
2023-01-19T21:51:03.940Z,100112.31
2023-01-19T21:53:30.350Z,100102.69
2023-01-19T21:55:58.254Z,100107.03
2023-01-19T21:58:24.650Z,100109.09
2023-01-19T22:00:51.088Z,100115.31
2023-01-19T22:03:17.592Z,100115.91
2023-01-19T22:05:44.010Z,100121.72
2023-01-19T22:08:10.425Z,100118.69
2023-01-19T22:10:37.212Z,100125.22
2023-01-19T22:13:04.978Z,100128.34
2023-01-19T22:15:31.362Z,100131.13
2023-01-19T22:17:57.765Z,100133.03
2023-01-19T22:20:24.151Z,100135.53
2023-01-19T22:22:50.539Z,100143.28
2023-01-19T22:25:16.971Z,100148.78
2023-01-19T22:27:43.933Z,100144.06
2023-01-19T22:30:12.348Z,100146.25
2023-01-19T22:32:38.807Z,100150.31
2023-01-19T22:35:05.996Z,100158.09
2023-01-19T22:37:35.400Z,100151.75
2023-01-19T22:40:01.963Z,100158.22
2023-01-19T22:42:28.343Z,100157.81
2023-01-19T22:44:57.765Z,100162.47
2023-01-19T22:47:25.578Z,100157.34
2023-01-19T22:49:51.963Z,100168.47
2023-01-19T22:52:18.371Z,100171.19
2023-01-19T22:54:44.817Z,100170.75
2023-01-19T22:57:11.808Z,100173.50
2023-01-19T22:59:38.231Z,100178.44
2023-01-19T23:02:04.849Z,100187.06
2023-01-19T23:04:32.607Z,100169.25
2023-01-19T23:06:58.978Z,100174.91
2023-01-19T23:09:25.380Z,100177.53
2023-01-19T23:11:51.797Z,100176.34
2023-01-19T23:14:20.621Z,100179.34
2023-01-19T23:16:47.491Z,100185.50
2023-01-19T23:19:14.760Z,100192.06
2023-01-19T23:21:42.843Z,100189.38
2023-01-19T23:24:09.354Z,100192.59
2023-01-19T23:26:36.047Z,100190.16
2023-01-19T23:29:02.491Z,100198.78
2023-01-19T23:31:31.383Z,100201.22
2023-01-19T23:34:00.006Z,100207.44
2023-01-19T23:36:29.441Z,100197.59
2023-01-19T23:38:59.372Z,100192.63
2023-01-19T23:41:26.969Z,100201.38
2023-01-19T23:43:53.410Z,100193.00
2023-01-19T23:46:20.512Z,100206.59
2023-01-19T23:48:47.359Z,100201.81
2023-01-19T23:51:15.624Z,100206.53
2023-01-19T23:53:42.395Z,100210.34
2023-01-19T23:56:12.008Z,100209.78
2023-01-19T23:58:38.538Z,100216.50
